createdAt,value
2022-12-23T00:00:01.534Z,6.42
2022-12-23T00:02:47.272Z,6.33
2022-12-23T00:05:38.178Z,6.28
2022-12-23T00:08:25.300Z,6.16
2022-12-23T00:11:16.728Z,6.08
2022-12-23T00:14:22.079Z,6.10
2022-12-23T00:17:21.622Z,6.19
2022-12-23T00:20:10.524Z,6.22
2022-12-23T00:23:05.063Z,6.22
2022-12-23T00:25:50.672Z,6.22
2022-12-23T00:28:37.232Z,6.22
2022-12-23T00:31:22.881Z,6.20
2022-12-23T00:34:10.552Z,6.31
2022-12-23T00:36:55.818Z,6.14
2022-12-23T00:40:05.929Z,6.27
2022-12-23T00:42:54.863Z,6.20
2022-12-23T00:45:40.304Z,6.35
2022-12-23T00:48:44.154Z,6.27
2022-12-23T00:51:29.619Z,6.43
2022-12-23T00:54:15.777Z,6.36
2022-12-23T00:57:01.777Z,6.30
2022-12-23T00:59:47.085Z,6.30
2022-12-23T01:02:51.605Z,6.18
2022-12-23T01:05:37.513Z,5.88
2022-12-23T01:08:22.993Z,5.90
2022-12-23T01:11:12.053Z,6.00
2022-12-23T01:13:58.388Z,5.87
2022-12-23T01:16:44.192Z,5.88
2022-12-23T01:19:29.908Z,5.83
2022-12-23T01:22:15.438Z,5.97
2022-12-23T01:25:01.093Z,5.97
2022-12-23T01:27:46.738Z,6.07
2022-12-23T01:30:32.476Z,6.05
2022-12-23T01:33:17.715Z,6.00
2022-12-23T01:36:05.613Z,6.09
2022-12-23T01:38:51.305Z,5.97
2022-12-23T01:41:55.277Z,5.95
2022-12-23T01:44:54.918Z,6.07
2022-12-23T01:47:49.953Z,6.12
2022-12-23T01:50:53.402Z,6.07
2022-12-23T01:53:43.450Z,6.13
2022-12-23T01:56:37.672Z,6.14
2022-12-23T01:59:41.699Z,5.89
2022-12-23T02:02:48.216Z,5.91
2022-12-23T02:05:34.869Z,6.14
2022-12-23T02:08:38.841Z,6.04
2022-12-23T02:11:24.339Z,6.08
2022-12-23T02:14:57.240Z,6.06
2022-12-23T02:18:21.015Z,5.85
2022-12-23T02:21:27.059Z,5.98
2022-12-23T02:24:33.431Z,5.92
2022-12-23T02:27:30.021Z,5.81
2022-12-23T02:30:40.439Z,5.55
2022-12-23T02:33:34.954Z,5.61
2022-12-23T02:36:32.715Z,5.78
2022-12-23T02:39:44.413Z,5.90
2022-12-23T02:42:38.568Z,6.02
2022-12-23T02:45:35.157Z,6.13
2022-12-23T02:48:51.197Z,5.86
2022-12-23T02:51:42.399Z,5.91
2022-12-23T02:54:35.957Z,5.91
2022-12-23T02:57:29.302Z,5.94
2022-12-23T03:00:15.376Z,5.82
2022-12-23T03:03:01.084Z,5.89
2022-12-23T03:05:50.083Z,6.00
2022-12-23T03:08:42.741Z,6.01
2022-12-23T03:11:40.039Z,6.00
2022-12-23T03:14:50.440Z,6.03
2022-12-23T03:17:49.626Z,6.10
2022-12-23T03:20:42.206Z,6.41
2022-12-23T03:23:32.406Z,6.18
2022-12-23T03:26:34.558Z,6.16
2022-12-23T03:29:28.920Z,6.22
2022-12-23T03:32:16.371Z,6.21
2022-12-23T03:35:04.227Z,6.36
2022-12-23T03:37:53.168Z,6.21
2022-12-23T03:40:43.156Z,6.02
2022-12-23T03:43:33.038Z,6.06
2022-12-23T03:46:32.845Z,6.01
2022-12-23T03:49:35.117Z,6.02
2022-12-23T03:52:27.150Z,6.01
2022-12-23T03:55:20.146Z,6.10
2022-12-23T03:58:38.434Z,6.12
2022-12-23T04:01:37.044Z,6.25
2022-12-23T04:04:44.941Z,6.08
2022-12-23T04:07:39.073Z,5.97
2022-12-23T04:10:25.375Z,6.02
2022-12-23T04:13:10.894Z,5.92
2022-12-23T04:16:00.466Z,5.94
2022-12-23T04:18:45.984Z,5.99
2022-12-23T04:21:31.677Z,6.01
2022-12-23T04:24:17.280Z,5.93
2022-12-23T04:27:02.677Z,5.99
2022-12-23T04:29:48.502Z,6.13
2022-12-23T04:32:34.044Z,6.05
2022-12-23T04:35:19.380Z,6.01
2022-12-23T04:38:04.746Z,5.96
2022-12-23T04:40:50.237Z,6.09
2022-12-23T04:43:35.692Z,6.10
2022-12-23T04:46:21.045Z,6.20
2022-12-23T04:49:06.724Z,6.14
2022-12-23T04:51:52.036Z,6.16
2022-12-23T04:54:42.349Z,6.15
2022-12-23T04:57:31.206Z,6.05
2022-12-23T05:00:17.351Z,5.99
2022-12-23T05:03:02.924Z,6.02
2022-12-23T05:05:48.425Z,6.16
2022-12-23T05:08:34.258Z,6.13
2022-12-23T05:11:19.803Z,6.12
2022-12-23T05:14:05.428Z,6.03
2022-12-23T05:16:50.904Z,6.18
2022-12-23T05:19:36.295Z,5.95
2022-12-23T05:22:21.479Z,5.98
2022-12-23T05:25:07.691Z,5.91
2022-12-23T05:27:53.108Z,5.90
2022-12-23T05:30:38.285Z,5.93
2022-12-23T05:33:23.937Z,6.05
2022-12-23T05:36:11.058Z,6.17
2022-12-23T05:38:57.455Z,6.00
2022-12-23T05:41:43.181Z,6.14
2022-12-23T05:44:29.087Z,5.86
2022-12-23T05:47:14.400Z,5.79
2022-12-23T05:50:00.108Z,5.91
2022-12-23T05:52:45.528Z,5.92
2022-12-23T05:55:31.373Z,5.86
2022-12-23T05:58:16.640Z,5.99
2022-12-23T06:01:03.446Z,5.87
2022-12-23T06:03:49.340Z,5.92
2022-12-23T06:06:34.797Z,5.87
2022-12-23T06:09:20.524Z,5.95
2022-12-23T06:12:05.988Z,5.85
2022-12-23T06:14:51.328Z,6.10
2022-12-23T06:17:36.755Z,6.18
2022-12-23T06:20:22.308Z,6.05
2022-12-23T06:23:07.959Z,6.13
2022-12-23T06:26:01.301Z,6.13
2022-12-23T06:28:46.983Z,6.03
2022-12-23T06:31:32.691Z,6.01
2022-12-23T06:34:18.126Z,6.04
2022-12-23T06:37:03.310Z,6.06
2022-12-23T06:39:49.017Z,5.93
2022-12-23T06:42:34.559Z,6.05
2022-12-23T06:45:19.997Z,6.17
2022-12-23T06:48:06.035Z,6.21
2022-12-23T06:50:51.342Z,6.26
2022-12-23T06:53:37.518Z,6.02
2022-12-23T06:56:23.192Z,6.19
2022-12-23T06:59:08.810Z,6.38
2022-12-23T07:01:54.431Z,6.15
2022-12-23T07:04:39.873Z,5.89
2022-12-23T07:07:25.708Z,5.91
2022-12-23T07:10:11.071Z,5.78
2022-12-23T07:12:56.469Z,5.83
2022-12-23T07:15:42.101Z,5.92
2022-12-23T07:18:27.277Z,5.91
2022-12-23T07:21:21.350Z,5.84
2022-12-23T07:24:10.162Z,5.69
2022-12-23T07:26:55.924Z,5.78
2022-12-23T07:29:41.341Z,5.73
2022-12-23T07:32:26.914Z,5.62
2022-12-23T07:35:12.433Z,5.67
2022-12-23T07:37:57.772Z,5.49
2022-12-23T07:40:43.333Z,5.43
2022-12-23T07:43:28.886Z,5.67
2022-12-23T07:46:14.430Z,5.62
2022-12-23T07:48:59.953Z,5.65
2022-12-23T07:51:45.317Z,5.61
2022-12-23T07:54:30.997Z,5.77
2022-12-23T07:57:16.311Z,5.82
2022-12-23T08:00:02.019Z,5.76
2022-12-23T08:02:48.175Z,6.04
2022-12-23T08:05:33.610Z,6.19
2022-12-23T08:08:19.228Z,6.18
2022-12-23T08:11:07.408Z,6.33
2022-12-23T08:13:52.738Z,6.22
2022-12-23T08:16:43.536Z,6.27
2022-12-23T08:19:29.892Z,6.32
2022-12-23T08:22:15.994Z,6.59
2022-12-23T08:25:01.287Z,6.65
2022-12-23T08:27:46.643Z,6.70
2022-12-23T08:30:32.378Z,6.74
2022-12-23T08:33:17.724Z,6.81
2022-12-23T08:36:04.188Z,7.09
2022-12-23T08:38:50.357Z,7.09
2022-12-23T08:41:41.192Z,6.87
2022-12-23T08:44:27.917Z,7.06
2022-12-23T08:47:13.577Z,7.08
2022-12-23T08:49:58.864Z,7.03
2022-12-23T08:52:44.062Z,6.96
2022-12-23T08:55:29.320Z,7.01
2022-12-23T08:58:15.562Z,6.98
2022-12-23T09:01:03.921Z,6.93
2022-12-23T09:03:50.128Z,6.96
2022-12-23T09:06:38.658Z,7.13
2022-12-23T09:09:23.922Z,7.06
2022-12-23T09:12:09.602Z,7.16
2022-12-23T09:14:54.961Z,7.20
2022-12-23T09:17:40.668Z,7.15
2022-12-23T09:20:26.231Z,7.26
2022-12-23T09:23:11.901Z,7.37
2022-12-23T09:25:58.369Z,7.45
2022-12-23T09:28:44.054Z,7.48
2022-12-23T09:31:36.175Z,7.50
2022-12-23T09:34:22.789Z,7.53
2022-12-23T09:37:08.663Z,7.66
2022-12-23T09:39:54.052Z,7.75
2022-12-23T09:43:04.907Z,7.92
2022-12-23T09:46:16.628Z,7.91
2022-12-23T09:49:11.416Z,7.79
2022-12-23T09:52:01.764Z,8.01
2022-12-23T09:54:52.336Z,8.03
2022-12-23T09:57:48.561Z,8.19
2022-12-23T10:00:48.893Z,8.55
2022-12-23T10:03:55.405Z,8.44
2022-12-23T10:06:41.762Z,8.50
2022-12-23T10:09:28.475Z,8.66
2022-12-23T10:12:28.279Z,8.59
2022-12-23T10:15:31.192Z,8.68
2022-12-23T10:18:19.211Z,8.85
2022-12-23T10:21:12.119Z,8.88
2022-12-23T10:24:00.545Z,9.02
2022-12-23T10:26:51.957Z,8.97
2022-12-23T10:29:37.566Z,8.78
2022-12-23T10:32:41.672Z,8.78
2022-12-23T10:35:45.759Z,8.72
2022-12-23T10:38:40.897Z,8.59
2022-12-23T10:42:02.859Z,8.60
2022-12-23T10:45:06.838Z,8.50
2022-12-23T10:48:00.059Z,8.55
2022-12-23T10:50:57.001Z,8.72
2022-12-23T10:53:51.229Z,8.67
2022-12-23T10:56:37.158Z,8.55
2022-12-23T10:59:27.762Z,8.67
2022-12-23T11:02:15.445Z,8.37
2022-12-23T11:05:00.835Z,8.25
2022-12-23T11:07:47.156Z,8.45
2022-12-23T11:10:33.336Z,8.36
2022-12-23T11:13:36.037Z,8.46
2022-12-23T11:16:27.038Z,8.57
2022-12-23T11:19:15.777Z,8.79
2022-12-23T11:22:02.113Z,8.96
2022-12-23T11:24:47.351Z,8.66
2022-12-23T11:27:34.331Z,8.81
2022-12-23T11:30:19.971Z,9.17
2022-12-23T11:33:06.158Z,9.14
2022-12-23T11:36:08.825Z,9.20
2022-12-23T11:39:03.140Z,9.11
2022-12-23T11:41:52.417Z,9.28
2022-12-23T11:44:44.980Z,9.13
2022-12-23T11:47:40.945Z,8.97
2022-12-23T11:50:30.397Z,8.98
2022-12-23T11:53:22.111Z,9.15
2022-12-23T11:56:11.256Z,9.05
2022-12-23T11:59:38.408Z,9.10
2022-12-23T12:02:40.787Z,9.12
2022-12-23T12:05:46.492Z,8.94
2022-12-23T12:08:37.934Z,8.93
2022-12-23T12:11:43.870Z,8.81
2022-12-23T12:14:45.482Z,8.79
2022-12-23T12:17:42.244Z,8.57
2022-12-23T12:20:39.061Z,8.52
2022-12-23T12:23:28.200Z,8.55
2022-12-23T12:26:21.958Z,8.48
2022-12-23T12:29:35.870Z,8.23
2022-12-23T12:32:40.623Z,8.37
2022-12-23T12:35:49.377Z,8.52
2022-12-23T12:38:39.089Z,8.53
2022-12-23T12:41:32.281Z,8.74
2022-12-23T12:44:34.239Z,8.79
2022-12-23T12:50:54.282Z,8.69
2022-12-23T12:54:07.565Z,8.68
2022-12-23T12:56:57.947Z,8.64
2022-12-23T12:59:44.609Z,8.56
2022-12-23T13:03:22.692Z,8.37
2022-12-23T13:06:32.996Z,8.31
2022-12-23T13:09:45.966Z,8.22
2022-12-23T13:12:44.643Z,8.08
2022-12-23T13:15:40.432Z,8.15
2022-12-23T13:18:56.098Z,7.98
2022-12-23T13:21:46.290Z,8.14
2022-12-23T13:25:02.491Z,8.23
2022-12-23T13:28:28.261Z,7.93
2022-12-23T13:31:19.359Z,8.08
2022-12-23T13:34:23.890Z,7.91
2022-12-23T13:37:39.223Z,7.90
2022-12-23T13:40:38.005Z,7.99
2022-12-23T13:43:25.776Z,7.98
2022-12-23T13:46:21.904Z,7.88
2022-12-23T13:49:24.537Z,7.97
2022-12-23T13:52:15.431Z,8.06
2022-12-23T13:55:24.440Z,8.00
2022-12-23T13:58:16.655Z,8.16
2022-12-23T14:01:08.240Z,8.05
2022-12-23T14:03:53.687Z,8.07
2022-12-23T14:06:39.207Z,8.07
2022-12-23T14:09:36.015Z,7.84
2022-12-23T14:12:28.672Z,8.04
2022-12-23T14:15:38.943Z,8.04
2022-12-23T14:18:56.588Z,7.96
2022-12-23T14:22:06.068Z,7.73
2022-12-23T14:25:03.145Z,7.71
2022-12-23T14:28:01.503Z,7.59
2022-12-23T14:30:47.199Z,7.57
2022-12-23T14:33:37.213Z,7.55
2022-12-23T14:36:25.778Z,7.53
2022-12-23T14:39:11.186Z,7.28
2022-12-23T14:42:03.494Z,7.27
2022-12-23T14:44:51.773Z,7.01
2022-12-23T14:47:40.349Z,7.03
2022-12-23T14:50:42.639Z,7.11
2022-12-23T14:53:30.725Z,6.98
2022-12-23T14:56:18.718Z,7.10
2022-12-23T14:59:15.967Z,7.08
2022-12-23T15:02:17.956Z,7.04
2022-12-23T15:05:04.498Z,6.96
2022-12-23T15:07:51.438Z,6.87
2022-12-23T15:10:37.485Z,7.00
2022-12-23T15:13:24.918Z,7.11
2022-12-23T15:16:16.484Z,6.94
2022-12-23T15:19:16.419Z,6.79
2022-12-23T15:22:20.807Z,6.95
2022-12-23T15:25:23.531Z,7.01
2022-12-23T15:28:21.693Z,6.89
2022-12-23T15:31:21.704Z,6.89
2022-12-23T15:34:17.032Z,6.91
2022-12-23T15:37:03.690Z,6.81
2022-12-23T15:39:55.241Z,6.81
2022-12-23T15:42:48.890Z,6.81
2022-12-23T15:45:35.744Z,6.86
2022-12-23T15:48:40.410Z,6.83
2022-12-23T15:54:54.095Z,6.86
2022-12-23T15:57:49.950Z,6.89
2022-12-23T16:00:41.946Z,6.95
2022-12-23T16:03:37.196Z,7.01
2022-12-23T16:06:35.308Z,6.93
2022-12-23T16:09:20.654Z,6.92
2022-12-23T16:12:26.826Z,6.91
2022-12-23T16:15:32.650Z,6.75
2022-12-23T16:18:23.600Z,6.66
2022-12-23T16:21:13.699Z,6.64
2022-12-23T16:24:00.245Z,6.58
2022-12-23T16:26:45.851Z,6.64
2022-12-23T16:29:33.391Z,6.57
2022-12-23T16:32:19.370Z,6.62
2022-12-23T16:35:12.430Z,6.58
2022-12-23T16:38:16.219Z,6.58
2022-12-23T16:41:01.804Z,6.52
2022-12-23T16:43:52.164Z,6.51
2022-12-23T16:46:42.641Z,6.43
2022-12-23T16:49:33.517Z,6.51
2022-12-23T16:52:19.769Z,6.62
2022-12-23T16:55:14.020Z,6.55
2022-12-23T16:57:59.653Z,6.61
2022-12-23T17:00:45.341Z,6.58
2022-12-23T17:03:32.492Z,6.43
2022-12-23T17:06:19.434Z,6.48
2022-12-23T17:09:07.631Z,6.37
2022-12-23T17:11:53.484Z,6.51
2022-12-23T17:14:39.353Z,6.48
2022-12-23T17:17:25.876Z,6.49
2022-12-23T17:20:11.965Z,6.54
2022-12-23T17:22:59.866Z,6.46
2022-12-23T17:25:45.072Z,6.54
2022-12-23T17:28:32.607Z,6.55
2022-12-23T17:31:26.588Z,6.55
2022-12-23T17:34:17.939Z,6.47
2022-12-23T17:37:12.508Z,6.37
2022-12-23T17:39:58.284Z,6.39
2022-12-23T17:42:44.751Z,6.36
2022-12-23T17:45:30.893Z,6.55
2022-12-23T17:48:21.326Z,6.49
2022-12-23T17:51:13.742Z,6.47
2022-12-23T17:53:59.778Z,6.47
2022-12-23T17:56:45.034Z,6.45
2022-12-23T17:59:30.766Z,6.42
2022-12-23T18:02:22.983Z,6.42
2022-12-23T18:05:33.093Z,6.45
2022-12-23T18:08:18.712Z,6.32
2022-12-23T18:11:05.345Z,6.46
2022-12-23T18:13:53.269Z,6.48
2022-12-23T18:16:38.766Z,6.43
2022-12-23T18:19:24.715Z,6.45
2022-12-23T18:22:19.450Z,6.57
2022-12-23T18:25:04.808Z,6.47
2022-12-23T18:27:51.513Z,6.60
2022-12-23T18:30:38.276Z,6.54
2022-12-23T18:33:28.401Z,6.56
2022-12-23T18:36:22.464Z,6.53
2022-12-23T18:39:07.956Z,6.56
2022-12-23T18:41:53.677Z,6.58
2022-12-23T18:44:39.677Z,6.56
2022-12-23T18:47:25.034Z,6.55
2022-12-23T18:50:10.664Z,6.53
2022-12-23T18:52:56.260Z,6.44
2022-12-23T18:55:41.974Z,6.39
2022-12-23T18:58:27.351Z,6.47
2022-12-23T19:01:13.879Z,6.37
2022-12-23T19:03:59.773Z,6.35
2022-12-23T19:06:45.347Z,6.44
2022-12-23T19:09:30.668Z,6.51
2022-12-23T19:12:16.181Z,6.45
2022-12-23T19:15:01.892Z,6.52
2022-12-23T19:17:48.131Z,6.43
2022-12-23T19:20:33.955Z,6.42
2022-12-23T19:23:19.281Z,6.47
2022-12-23T19:26:06.128Z,6.31
2022-12-23T19:28:51.730Z,6.39
2022-12-23T19:31:37.048Z,6.38
2022-12-23T19:34:22.337Z,6.43
2022-12-23T19:37:07.950Z,6.41
2022-12-23T19:39:53.564Z,6.34
2022-12-23T19:42:39.511Z,6.31
2022-12-23T19:45:25.207Z,6.40
2022-12-23T19:48:10.401Z,6.52
2022-12-23T19:51:01.226Z,6.43
2022-12-23T19:53:50.136Z,6.42
2022-12-23T19:56:35.644Z,6.46
2022-12-23T19:59:21.122Z,6.34
2022-12-23T20:02:06.731Z,6.45
2022-12-23T20:04:52.023Z,6.42
2022-12-23T20:07:37.662Z,6.43
2022-12-23T20:10:23.020Z,6.46
2022-12-23T20:13:08.655Z,6.52
2022-12-23T20:15:54.234Z,6.36
2022-12-23T20:18:39.575Z,6.42
2022-12-23T20:21:25.068Z,6.37
2022-12-23T20:24:10.414Z,6.21
2022-12-23T20:26:55.738Z,6.40
2022-12-23T20:29:41.225Z,6.30
2022-12-23T20:32:26.857Z,6.43
2022-12-23T20:35:12.296Z,6.48
2022-12-23T20:37:58.398Z,6.57
2022-12-23T20:40:43.984Z,6.49
2022-12-23T20:43:29.532Z,6.43
2022-12-23T20:46:17.686Z,6.36
2022-12-23T20:49:03.413Z,6.29
2022-12-23T20:51:49.117Z,6.35
2022-12-23T20:54:34.795Z,6.47
2022-12-23T20:57:20.408Z,6.26
2022-12-23T21:00:06.877Z,6.38
2022-12-23T21:02:52.449Z,6.50
2022-12-23T21:05:37.995Z,6.49
2022-12-23T21:08:23.510Z,6.41
2022-12-23T21:11:09.423Z,6.40
2022-12-23T21:13:55.340Z,6.43
2022-12-23T21:16:41.975Z,6.47
2022-12-23T21:19:27.577Z,6.37
2022-12-23T21:22:12.755Z,6.22
2022-12-23T21:24:58.553Z,6.36
2022-12-23T21:27:44.008Z,6.43
2022-12-23T21:30:29.390Z,6.41
2022-12-23T21:33:15.088Z,6.32
2022-12-23T21:36:00.775Z,6.30
2022-12-23T21:38:46.358Z,6.32
2022-12-23T21:41:35.880Z,6.40
2022-12-23T21:44:21.163Z,6.38
2022-12-23T21:47:06.750Z,6.37
2022-12-23T21:49:52.537Z,6.42
2022-12-23T21:52:37.809Z,6.25
2022-12-23T21:55:23.102Z,6.43
2022-12-23T21:58:09.469Z,6.35
2022-12-23T22:00:55.148Z,6.43
2022-12-23T22:03:42.009Z,6.39
2022-12-23T22:06:29.619Z,6.40
2022-12-23T22:09:17.370Z,6.37
2022-12-23T22:12:05.043Z,6.32
2022-12-23T22:14:50.608Z,6.33
2022-12-23T22:17:35.811Z,6.24
2022-12-23T22:20:22.411Z,6.33
2022-12-23T22:23:07.737Z,6.23
2022-12-23T22:25:54.436Z,6.35
2022-12-23T22:28:40.607Z,6.27
2022-12-23T22:31:37.872Z,6.16
2022-12-23T22:34:23.571Z,6.26
2022-12-23T22:37:09.064Z,6.18
2022-12-23T22:39:54.664Z,6.12
2022-12-23T22:42:40.204Z,6.17
2022-12-23T22:45:25.860Z,6.20
2022-12-23T22:48:11.753Z,6.07
2022-12-23T22:51:10.586Z,6.29
2022-12-23T22:53:56.483Z,6.30
2022-12-23T22:56:42.138Z,6.28
2022-12-23T22:59:27.948Z,6.08
2022-12-23T23:02:13.174Z,6.27
2022-12-23T23:04:58.896Z,6.24
2022-12-23T23:07:44.311Z,6.19
2022-12-23T23:10:29.851Z,6.21
2022-12-23T23:13:15.500Z,6.15
2022-12-23T23:16:02.325Z,6.26
2022-12-23T23:18:47.751Z,6.28
2022-12-23T23:21:34.154Z,6.20
2022-12-23T23:24:19.596Z,6.09
2022-12-23T23:27:06.826Z,6.15
2022-12-23T23:29:52.397Z,6.15
2022-12-23T23:32:38.157Z,6.25
2022-12-23T23:35:23.912Z,6.21
2022-12-23T23:38:09.637Z,6.15
2022-12-23T23:40:56.298Z,6.15
2022-12-23T23:43:41.980Z,6.18
2022-12-23T23:46:27.323Z,6.10
2022-12-23T23:49:13.665Z,6.07
2022-12-23T23:51:59.329Z,6.01
2022-12-23T23:54:44.596Z,6.02
2022-12-23T23:57:31.661Z,6.12
